Hlavní strana
METAR-TAF:

METAR-TAF

Letiště :

Oulu, Finsko

zeměpisná šířka: 64-56N, zeměpisná délka: 025-22E, výška: 12 m

Aktuální stav počasí

Zpráva byla vytvořena před 30 minutami, v 10:20 UTC
Severoseverovýchodní vítr 8 kt, proměnlivý mezi severním a severovýchodním
Teplota 17°C
Vlhkost vzduchu 59%
Tlak 1012 hPa
Viditelnost 10 km a více
Žádná oblačnost pod 1500 m, nevyskytují se cumulonimby.

METAR: EFOU 221020Z AUTO 02008KT 350V050 CAVOK 17/09 Q1012

Čas: 13:50 (10:50 UTC)

Předpověď počasí

Zpráva byla vytvořena před 2 hodinami a 26 minutami, v 08:24 UTC
Předpověď platná od 22 v 09 UTC do 23 v 09 UTC
Severovýchodní vítr 9 kt
Viditelnost 10 km a více
Žádná oblačnost pod 1500 m, nevyskytují se cumulonimby.
Dočasný
od 22 v 14 UTC do 22 v 17 UTC
Skoro jasno ve výšce 3000 ft, Cumulonimbus.

TAF: EFOU 220824Z 2209/2309 04009KT CAVOK TEMPO 2214/2217 FEW030CB

Stav a předpovědi počasí z více než 4 000 letišť (zprávy METAR a TAF).

Červené a žluté tečky na mapě představují dostupné meteorologické stanice.

Když kurzor umístíte na tečku, zobrazí se název stanice.

Pak kliknutím zobrazíte stav a předpověď počasí.

Chcete-li změnit mapu, kliknutím na zelené tlačítko se znaménkem +mapu přiblížíte, kliknutím na zelené tlačítko se znaménkem – mapu oddálíte a kliknutím na zelené šipky přejdete na sousední mapy.


METAR-TAF: